createdAt,value
2022-08-24T00:00:22.466Z,99424.44
2022-08-24T00:02:25.910Z,99419.50
2022-08-24T00:04:28.693Z,99423.09
2022-08-24T00:06:34.577Z,99425.84
2022-08-24T00:08:38.612Z,99426.88
2022-08-24T00:10:41.343Z,99434.09
2022-08-24T00:12:43.943Z,99436.81
2022-08-24T00:14:46.592Z,99428.16
2022-08-24T00:16:49.170Z,99427.31
2022-08-24T00:18:51.843Z,99427.88
2022-08-24T00:20:54.427Z,99428.59
2022-08-24T00:22:57.144Z,99438.16
2022-08-24T00:24:59.908Z,99445.94
2022-08-24T00:27:02.678Z,99443.03
2022-08-24T00:29:07.569Z,99439.44
2022-08-24T00:31:13.223Z,99446.22
2022-08-24T00:33:15.826Z,99451.56
2022-08-24T00:35:19.961Z,99459.31
2022-08-24T00:37:22.352Z,99470.03
2022-08-24T00:39:24.742Z,99470.59
2022-08-24T00:41:29.142Z,99482.00
2022-08-24T00:43:33.302Z,99494.09
2022-08-24T00:45:43.725Z,99494.41
2022-08-24T00:47:54.420Z,99487.00
2022-08-24T00:49:59.715Z,99484.41
2022-08-24T00:52:21.451Z,99490.19
2022-08-24T00:54:29.409Z,99491.06
2022-08-24T00:56:40.389Z,99496.56
2022-08-24T00:58:56.059Z,99483.25
2022-08-24T01:01:08.820Z,99481.38
2022-08-24T01:03:11.926Z,99481.81
2022-08-24T01:05:18.270Z,99480.53
2022-08-24T01:07:23.396Z,99479.53
2022-08-24T01:09:28.745Z,99478.25
2022-08-24T01:11:33.752Z,99472.59
2022-08-24T01:13:37.490Z,99477.66
2022-08-24T01:15:45.805Z,99473.75
2022-08-24T01:18:07.406Z,99470.72
2022-08-24T01:20:10.931Z,99470.28
2022-08-24T01:22:51.187Z,99474.34
2022-08-24T01:24:53.671Z,99469.00
2022-08-24T01:26:57.893Z,99462.50
2022-08-24T01:29:13.816Z,99474.06
2022-08-24T01:31:19.241Z,99473.75
2022-08-24T01:33:30.243Z,99469.59
2022-08-24T01:35:33.414Z,99470.00
2022-08-24T01:37:37.696Z,99465.41
2022-08-24T01:39:48.553Z,99451.81
2022-08-24T01:41:51.937Z,99447.94
2022-08-24T01:43:54.288Z,99455.13
2022-08-24T01:45:57.014Z,99445.59
2022-08-24T01:47:59.972Z,99451.38
2022-08-24T01:50:03.086Z,99455.59
2022-08-24T01:52:07.643Z,99453.84
2022-08-24T01:54:11.186Z,99447.19
2022-08-24T01:56:13.399Z,99452.69
2022-08-24T01:58:16.066Z,99456.44
2022-08-24T02:00:18.621Z,99446.75
2022-08-24T02:02:27.900Z,99444.91
2022-08-24T02:04:30.034Z,99442.88
2022-08-24T02:06:33.189Z,99443.31
2022-08-24T02:08:36.215Z,99436.69
2022-08-24T02:10:38.416Z,99442.00
2022-08-24T02:12:42.742Z,99442.00
2022-08-24T02:14:44.738Z,99435.50
2022-08-24T02:16:48.066Z,99432.06
2022-08-24T02:18:58.829Z,99427.84
2022-08-24T02:21:03.850Z,99439.44
2022-08-24T02:23:07.122Z,99437.53
2022-08-24T02:25:09.486Z,99441.16
2022-08-24T02:27:17.719Z,99433.06
2022-08-24T02:29:21.950Z,99425.84
2022-08-24T02:31:28.063Z,99435.53
2022-08-24T02:33:30.867Z,99435.53
2022-08-24T02:35:33.447Z,99423.53
2022-08-24T02:37:41.125Z,99424.56
2022-08-24T02:39:48.464Z,99421.94
2022-08-24T02:41:53.356Z,99423.25
2022-08-24T02:43:56.362Z,99414.00
2022-08-24T02:45:59.340Z,99412.84
2022-08-24T02:48:02.020Z,99409.81
2022-08-24T02:50:07.091Z,99409.81
2022-08-24T02:52:09.353Z,99422.81
2022-08-24T02:54:18.510Z,99424.97
2022-08-24T02:56:23.015Z,99421.94
2022-08-24T02:58:26.015Z,99419.19
2022-08-24T03:00:28.562Z,99421.09
2022-08-24T03:02:32.185Z,99423.97
2022-08-24T03:04:35.059Z,99423.97
2022-08-24T03:06:39.561Z,99422.38
2022-08-24T03:08:41.936Z,99419.50
2022-08-24T03:10:50.083Z,99416.88
2022-08-24T03:12:53.973Z,99410.72
2022-08-24T03:15:02.516Z,99411.56
2022-08-24T03:17:05.492Z,99412.28
2022-08-24T03:19:08.008Z,99412.44
2022-08-24T03:21:14.880Z,99413.72
2022-08-24T03:23:19.165Z,99422.09
2022-08-24T03:25:24.832Z,99416.75
2022-08-24T03:27:27.099Z,99428.72
2022-08-24T03:29:33.606Z,99422.22
2022-08-24T03:31:36.328Z,99426.84
2022-08-24T03:33:38.832Z,99421.25
2022-08-24T03:35:40.972Z,99415.59
2022-08-24T03:37:43.928Z,99417.47
2022-08-24T03:39:47.981Z,99433.91
2022-08-24T03:41:50.262Z,99433.06
2022-08-24T03:43:52.351Z,99435.94
2022-08-24T03:45:56.682Z,99441.41
2022-08-24T03:47:59.582Z,99441.41
2022-08-24T03:50:02.447Z,99445.47
2022-08-24T03:52:07.392Z,99439.53
2022-08-24T03:54:11.099Z,99436.06
2022-08-24T03:56:13.235Z,99441.56
2022-08-24T03:58:15.428Z,99440.41
2022-08-24T04:00:18.299Z,99437.97
2022-08-24T04:02:32.933Z,99443.16
2022-08-24T04:04:36.449Z,99444.00
2022-08-24T04:06:39.112Z,99437.38
2022-08-24T04:08:41.878Z,99434.31
2022-08-24T04:10:45.292Z,99434.31
2022-08-24T04:12:47.285Z,99440.81
2022-08-24T04:14:53.080Z,99437.66
2022-08-24T04:16:57.430Z,99438.22
2022-08-24T04:19:06.389Z,99443.97
2022-08-24T04:21:18.424Z,99437.91
2022-08-24T04:23:23.861Z,99441.22
2022-08-24T04:25:47.167Z,99453.31
2022-08-24T04:27:49.811Z,99452.34
2022-08-24T04:29:52.236Z,99456.78
2022-08-24T04:31:54.891Z,99459.25
2022-08-24T04:33:58.745Z,99468.50
2022-08-24T04:36:02.828Z,99472.09
2022-08-24T04:38:09.390Z,99475.69
2022-08-24T04:40:12.850Z,99470.94
2022-08-24T04:42:21.365Z,99480.47
2022-08-24T04:44:25.546Z,99478.47
2022-08-24T04:46:28.872Z,99482.78
2022-08-24T04:48:31.646Z,99486.56
2022-08-24T04:50:36.202Z,99485.25
2022-08-24T04:52:38.711Z,99492.47
2022-08-24T04:54:40.832Z,99495.97
2022-08-24T04:56:54.008Z,99495.97
2022-08-24T04:58:56.668Z,99494.94
2022-08-24T05:00:59.189Z,99496.53
2022-08-24T05:03:03.948Z,99497.81
2022-08-24T05:05:09.321Z,99499.84
2022-08-24T05:07:14.069Z,99505.63
2022-08-24T05:09:18.939Z,99510.56
2022-08-24T05:11:22.954Z,99508.97
2022-08-24T05:13:25.671Z,99510.56
2022-08-24T05:15:27.943Z,99520.91
2022-08-24T05:17:30.775Z,99524.09
2022-08-24T05:19:32.855Z,99512.97
2022-08-24T05:21:40.067Z,99517.19
2022-08-24T05:23:43.363Z,99514.28
2022-08-24T05:25:46.548Z,99515.75
2022-08-24T05:27:49.137Z,99516.59
2022-08-24T05:29:54.336Z,99517.34
2022-08-24T05:31:57.536Z,99509.97
2022-08-24T05:34:01.820Z,99512.88
2022-08-24T05:36:04.977Z,99520.66
2022-08-24T05:38:07.365Z,99513.88
2022-08-24T05:40:15.642Z,99521.97
2022-08-24T05:42:21.334Z,99522.53
2022-08-24T05:44:27.913Z,99513.78
2022-08-24T05:46:33.980Z,99523.19
2022-08-24T05:48:37.506Z,99519.13
2022-08-24T05:50:42.739Z,99517.53
2022-08-24T05:52:44.805Z,99519.84
2022-08-24T05:54:53.077Z,99518.72
2022-08-24T05:56:57.776Z,99526.78
2022-08-24T05:59:02.692Z,99520.13
2022-08-24T06:01:13.695Z,99525.47
2022-08-24T06:03:16.526Z,99519.06
2022-08-24T06:05:24.593Z,99524.78
2022-08-24T06:07:29.845Z,99522.56
2022-08-24T06:09:32.928Z,99532.50
2022-08-24T06:11:38.717Z,99530.72
2022-08-24T06:13:41.999Z,99529.84
2022-08-24T06:15:59.672Z,99520.22
2022-08-24T06:18:08.475Z,99524.06
2022-08-24T06:20:10.975Z,99526.63
2022-08-24T06:22:13.236Z,99533.94
2022-08-24T06:24:16.662Z,99539.63
2022-08-24T06:26:40.640Z,99537.06
2022-08-24T06:28:44.413Z,99531.31
2022-08-24T06:30:46.872Z,99534.84
2022-08-24T06:32:54.437Z,99541.09
2022-08-24T06:35:20.039Z,99548.81
2022-08-24T06:37:26.635Z,99550.63
2022-08-24T06:39:31.619Z,99558.50
2022-08-24T06:41:36.464Z,99561.44
2022-08-24T06:43:46.809Z,99553.41
2022-08-24T06:45:50.623Z,99555.16
2022-08-24T06:47:56.189Z,99544.22
2022-08-24T06:50:02.171Z,99553.91
2022-08-24T06:52:05.647Z,99546.72
2022-08-24T06:54:07.808Z,99552.94
2022-08-24T06:56:11.044Z,99550.56
2022-08-24T06:58:13.485Z,99549.22
2022-08-24T07:00:17.656Z,99540.50
2022-08-24T07:02:20.932Z,99537.41
2022-08-24T07:04:28.088Z,99535.72
2022-08-24T07:06:53.769Z,99534.69
2022-08-24T07:08:58.452Z,99536.25
2022-08-24T07:11:04.409Z,99543.22
2022-08-24T07:13:07.130Z,99552.41
2022-08-24T07:15:16.148Z,99553.25
2022-08-24T07:17:24.429Z,99559.28
2022-08-24T07:19:26.780Z,99544.44
2022-08-24T07:21:29.586Z,99554.97
2022-08-24T07:23:41.202Z,99549.94
2022-08-24T07:25:49.652Z,99557.56
2022-08-24T07:27:53.508Z,99567.56
2022-08-24T07:30:16.186Z,99565.00
2022-08-24T07:32:18.928Z,99571.94
2022-08-24T07:34:23.636Z,99559.16
2022-08-24T07:36:26.197Z,99570.38
2022-08-24T07:38:31.934Z,99566.41
2022-08-24T07:40:55.785Z,99572.63
2022-08-24T07:42:59.189Z,99562.28
2022-08-24T07:45:01.430Z,99558.13
2022-08-24T07:47:27.181Z,99558.47
2022-08-24T07:49:36.450Z,99563.97
2022-08-24T07:51:44.792Z,99559.28
2022-08-24T07:53:53.666Z,99571.88
2022-08-24T07:56:01.649Z,99556.31
2022-08-24T07:58:05.846Z,99560.63
2022-08-24T08:00:14.396Z,99561.69
2022-08-24T08:02:23.775Z,99559.94
2022-08-24T08:04:29.788Z,99564.59
2022-08-24T08:06:35.490Z,99571.84
2022-08-24T08:08:40.838Z,99572.50
2022-08-24T08:10:43.149Z,99565.00
2022-08-24T08:12:46.038Z,99571.75
2022-08-24T08:14:49.129Z,99563.19
2022-08-24T08:16:51.997Z,99571.19
2022-08-24T08:19:09.331Z,99565.78
2022-08-24T08:21:33.089Z,99572.50
2022-08-24T08:23:56.299Z,99572.47
2022-08-24T08:26:08.732Z,99568.97
2022-08-24T08:28:37.827Z,99579.91
2022-08-24T08:30:42.323Z,99582.63
2022-08-24T08:32:45.019Z,99574.31
2022-08-24T08:34:50.905Z,99567.47
2022-08-24T08:36:53.544Z,99571.78
2022-08-24T08:38:56.217Z,99567.78
2022-08-24T08:41:24.483Z,99563.53
2022-08-24T08:43:52.893Z,99574.34
2022-08-24T08:46:14.544Z,99570.63
2022-08-24T08:48:50.299Z,99577.69
2022-08-24T08:51:03.075Z,99576.56
2022-08-24T08:53:14.079Z,99574.84
2022-08-24T08:55:37.659Z,99566.72
2022-08-24T08:58:00.368Z,99567.09
2022-08-24T09:00:20.114Z,99570.94
2022-08-24T09:02:55.742Z,99565.19
2022-08-24T09:05:35.482Z,99571.56
2022-08-24T09:07:55.593Z,99574.31
2022-08-24T09:10:10.417Z,99577.06
2022-08-24T09:12:17.216Z,99578.72
2022-08-24T09:14:39.091Z,99583.03
2022-08-24T09:16:51.310Z,99581.69
2022-08-24T09:18:53.652Z,99584.66
2022-08-24T09:21:01.272Z,99591.34
2022-08-24T09:23:45.135Z,99590.94
2022-08-24T09:26:06.760Z,99597.13
2022-08-24T09:28:28.481Z,99597.66
2022-08-24T09:31:04.071Z,99600.91
2022-08-24T09:33:22.449Z,99612.13
2022-08-24T09:35:45.008Z,99597.41
2022-08-24T09:38:18.184Z,99584.41
2022-08-24T09:40:29.488Z,99594.63
2022-08-24T09:43:13.436Z,99589.09
2022-08-24T09:45:46.147Z,99593.38
2022-08-24T09:47:51.527Z,99591.59
2022-08-24T09:50:43.460Z,99587.78
2022-08-24T09:52:57.686Z,99584.81
2022-08-24T09:55:21.692Z,99577.69
2022-08-24T09:57:30.680Z,99580.47
2022-08-24T10:00:10.478Z,99579.28
2022-08-24T10:02:30.599Z,99569.63
2022-08-24T10:04:48.721Z,99583.16
2022-08-24T10:07:26.171Z,99570.59
2022-08-24T10:09:50.555Z,99560.97
2022-08-24T10:12:09.228Z,99564.88
2022-08-24T10:14:20.085Z,99563.25
2022-08-24T10:16:47.073Z,99559.06
2022-08-24T10:19:12.800Z,99568.41
2022-08-24T10:21:48.523Z,99562.09
2022-08-24T10:24:07.385Z,99565.72
2022-08-24T10:26:36.957Z,99565.72
2022-08-24T10:28:54.821Z,99567.06
2022-08-24T10:31:12.632Z,99568.22
2022-08-24T10:33:23.750Z,99559.41
2022-08-24T10:35:35.484Z,99565.25
2022-08-24T10:38:16.055Z,99560.25
2022-08-24T10:40:25.515Z,99552.53
2022-08-24T10:42:57.944Z,99562.09
2022-08-24T10:45:38.919Z,99549.84
2022-08-24T10:47:57.484Z,99551.66
2022-08-24T10:50:15.142Z,99548.78
2022-08-24T10:52:36.704Z,99546.28
2022-08-24T10:54:42.931Z,99551.09
2022-08-24T10:57:04.085Z,99554.72
2022-08-24T10:59:16.983Z,99548.88
2022-08-24T11:01:27.399Z,99538.94
2022-08-24T11:03:30.170Z,99542.25
2022-08-24T11:05:41.513Z,99527.78
2022-08-24T11:08:08.167Z,99530.69
2022-08-24T11:10:10.730Z,99530.34
2022-08-24T11:12:34.605Z,99528.81
2022-08-24T11:14:42.028Z,99542.78
2022-08-24T11:16:47.115Z,99535.91
2022-08-24T11:18:53.407Z,99537.81
2022-08-24T11:20:56.014Z,99544.03
2022-08-24T11:23:07.066Z,99537.81
2022-08-24T11:25:28.230Z,99540.81
2022-08-24T11:27:39.866Z,99537.53
2022-08-24T11:29:53.636Z,99537.41
2022-08-24T11:31:56.938Z,99534.34
2022-08-24T11:34:09.215Z,99535.97
2022-08-24T11:36:23.538Z,99536.69
2022-08-24T11:38:34.579Z,99530.81
2022-08-24T11:40:41.063Z,99527.03
2022-08-24T11:43:11.178Z,99525.50
2022-08-24T11:45:35.266Z,99527.09
2022-08-24T11:48:05.335Z,99535.72
2022-08-24T11:50:30.139Z,99530.16
2022-08-24T11:52:35.298Z,99541.91
2022-08-24T11:54:52.758Z,99524.38
2022-08-24T11:57:03.730Z,99534.56
2022-08-24T11:59:22.586Z,99529.53
2022-08-24T12:01:45.859Z,99529.44
2022-08-24T12:04:08.120Z,99525.84
2022-08-24T12:06:16.352Z,99527.34
2022-08-24T12:08:45.642Z,99520.19
2022-08-24T12:11:12.588Z,99517.56
2022-08-24T12:13:47.249Z,99525.84
2022-08-24T12:15:59.406Z,99520.59
2022-08-24T12:18:18.953Z,99524.50
2022-08-24T12:20:25.614Z,99526.19
2022-08-24T12:22:29.260Z,99528.56
2022-08-24T12:24:46.272Z,99534.34
2022-08-24T12:26:52.328Z,99535.88
2022-08-24T12:29:01.720Z,99524.75
2022-08-24T12:31:12.531Z,99526.50
2022-08-24T12:33:20.409Z,99513.28
2022-08-24T12:35:32.681Z,99517.00
2022-08-24T12:37:49.426Z,99514.97
2022-08-24T12:40:00.196Z,99516.38
2022-08-24T12:42:20.107Z,99515.75
2022-08-24T12:44:29.317Z,99511.69
2022-08-24T12:46:34.335Z,99511.31
2022-08-24T12:49:24.151Z,99516.63
2022-08-24T12:52:00.677Z,99517.50
2022-08-24T12:54:35.279Z,99516.00
2022-08-24T12:56:43.665Z,99516.91
2022-08-24T12:59:03.433Z,99513.31
2022-08-24T13:01:08.008Z,99517.13
2022-08-24T13:03:33.758Z,99520.78
2022-08-24T13:05:58.929Z,99516.53
2022-08-24T13:08:13.430Z,99524.69
2022-08-24T13:10:27.278Z,99533.28
2022-08-24T13:12:38.276Z,99525.16
2022-08-24T13:14:49.828Z,99532.44
2022-08-24T13:16:56.541Z,99527.94
2022-08-24T13:19:31.363Z,99531.28
2022-08-24T13:21:44.544Z,99530.63
2022-08-24T13:23:47.074Z,99525.72
2022-08-24T13:25:52.358Z,99527.19
2022-08-24T13:28:09.354Z,99516.66
2022-08-24T13:30:29.628Z,99525.41
2022-08-24T13:32:38.666Z,99522.28
2022-08-24T13:34:47.460Z,99523.56
2022-08-24T13:37:11.038Z,99525.06
2022-08-24T13:39:44.096Z,99525.06
2022-08-24T13:42:07.414Z,99522.69
2022-08-24T13:44:43.929Z,99525.72
2022-08-24T13:46:55.372Z,99529.31
2022-08-24T13:49:12.962Z,99521.97
2022-08-24T13:51:28.829Z,99528.00
2022-08-24T13:53:46.972Z,99526.88
2022-08-24T13:55:55.726Z,99530.56
2022-08-24T13:58:13.377Z,99530.56
2022-08-24T14:00:15.254Z,99536.75
2022-08-24T14:02:17.141Z,99534.84
2022-08-24T14:04:24.553Z,99535.91
2022-08-24T14:06:35.981Z,99536.13
2022-08-24T14:08:53.463Z,99533.34
2022-08-24T14:11:21.077Z,99535.63
2022-08-24T14:13:47.949Z,99533.00
2022-08-24T14:16:37.318Z,99535.53
2022-08-24T14:18:59.166Z,99530.56
2022-08-24T14:21:00.948Z,99529.06
2022-08-24T14:23:17.712Z,99528.31
2022-08-24T14:25:21.514Z,99529.47
2022-08-24T14:27:43.790Z,99524.63
2022-08-24T14:29:46.693Z,99525.22
2022-08-24T14:31:57.475Z,99532.78
2022-08-24T14:34:06.561Z,99523.88
2022-08-24T14:36:21.002Z,99526.97
2022-08-24T14:38:44.891Z,99522.28
2022-08-24T14:41:07.981Z,99518.66
2022-08-24T14:43:31.356Z,99526.25
2022-08-24T14:45:47.187Z,99526.16
2022-08-24T14:48:20.534Z,99531.84
2022-08-24T14:50:38.755Z,99531.94
2022-08-24T14:52:46.260Z,99532.63
2022-08-24T14:55:03.699Z,99537.97
2022-08-24T14:57:36.119Z,99534.34
2022-08-24T14:59:45.562Z,99535.28
2022-08-24T15:01:53.611Z,99534.22
2022-08-24T15:04:16.670Z,99537.66
2022-08-24T15:06:47.846Z,99532.81
2022-08-24T15:08:50.091Z,99535.47
2022-08-24T15:11:29.609Z,99530.31
2022-08-24T15:13:52.974Z,99522.06
2022-08-24T15:16:01.778Z,99527.69
2022-08-24T15:18:09.674Z,99532.00
2022-08-24T15:20:26.768Z,99527.22
2022-08-24T15:23:04.140Z,99521.00
2022-08-24T15:25:47.400Z,99521.19
2022-08-24T15:27:55.282Z,99522.53
2022-08-24T15:30:00.607Z,99525.50
2022-08-24T15:32:11.386Z,99525.69
2022-08-24T15:34:14.106Z,99524.44
2022-08-24T15:36:17.699Z,99525.50
2022-08-24T15:38:22.093Z,99533.25
2022-08-24T15:40:31.555Z,99531.31
2022-08-24T15:42:36.187Z,99528.19
2022-08-24T15:44:40.832Z,99534.75
2022-08-24T15:46:49.334Z,99536.31
2022-08-24T15:49:01.370Z,99536.44
2022-08-24T15:51:04.167Z,99535.41
2022-08-24T15:53:25.709Z,99536.75
2022-08-24T15:55:47.960Z,99536.19
2022-08-24T15:57:52.500Z,99535.09
2022-08-24T16:00:05.167Z,99543.72
2022-08-24T16:02:29.171Z,99531.19
2022-08-24T16:04:49.776Z,99534.72
2022-08-24T16:06:51.584Z,99536.44
2022-08-24T16:08:59.503Z,99549.56
2022-08-24T16:11:27.687Z,99554.41
2022-08-24T16:13:32.230Z,99557.31
2022-08-24T16:15:34.870Z,99558.47
2022-08-24T16:17:42.164Z,99560.72
2022-08-24T16:19:50.886Z,99564.63
2022-08-24T16:21:53.757Z,99554.84
2022-08-24T16:24:10.140Z,99555.19
2022-08-24T16:26:21.118Z,99563.09
2022-08-24T16:28:22.963Z,99561.16
2022-08-24T16:30:47.762Z,99557.16
2022-08-24T16:32:57.804Z,99557.84
2022-08-24T16:35:08.703Z,99557.16
2022-08-24T16:37:10.764Z,99562.16
2022-08-24T16:39:13.418Z,99566.00
2022-08-24T16:41:18.688Z,99560.44
2022-08-24T16:43:20.543Z,99563.47
2022-08-24T16:45:23.260Z,99562.47
2022-08-24T16:47:26.820Z,99557.69
2022-08-24T16:49:28.630Z,99562.50
2022-08-24T16:51:30.474Z,99559.75
2022-08-24T16:53:32.421Z,99552.47
2022-08-24T16:55:34.733Z,99560.13
2022-08-24T16:57:37.687Z,99555.44
2022-08-24T16:59:41.711Z,99554.56
2022-08-24T17:01:43.654Z,99560.28
2022-08-24T17:03:45.652Z,99559.81
2022-08-24T17:05:47.538Z,99558.06
2022-08-24T17:07:51.018Z,99566.59
2022-08-24T17:09:54.817Z,99564.19
2022-08-24T17:12:07.163Z,99563.50
2022-08-24T17:14:09.583Z,99556.59
2022-08-24T17:16:12.657Z,99554.19
2022-08-24T17:18:15.316Z,99556.28
2022-08-24T17:20:17.189Z,99560.47
2022-08-24T17:22:19.768Z,99560.16
2022-08-24T17:24:23.047Z,99565.38
2022-08-24T17:26:26.931Z,99569.56
2022-08-24T17:28:29.333Z,99563.53
2022-08-24T17:30:32.183Z,99567.53
2022-08-24T17:32:34.334Z,99571.00
2022-08-24T17:34:36.401Z,99568.72
2022-08-24T17:36:39.130Z,99570.31
2022-08-24T17:38:46.246Z,99575.75
2022-08-24T17:40:49.507Z,99582.50
2022-08-24T17:42:51.977Z,99571.75
2022-08-24T17:44:55.096Z,99577.84
2022-08-24T17:47:00.680Z,99578.38
2022-08-24T17:49:02.659Z,99585.50
2022-08-24T17:51:04.961Z,99585.19
2022-08-24T17:53:06.985Z,99582.94
2022-08-24T17:55:11.962Z,99591.75
2022-08-24T17:57:15.068Z,99591.06
2022-08-24T17:59:25.428Z,99585.91
2022-08-24T18:01:27.749Z,99592.97
2022-08-24T18:03:29.606Z,99593.50
2022-08-24T18:05:35.983Z,99589.91
2022-08-24T18:07:52.539Z,99591.81
2022-08-24T18:10:00.419Z,99586.13
2022-08-24T18:12:03.047Z,99599.06
2022-08-24T18:14:05.382Z,99592.31
2022-08-24T18:16:13.682Z,99598.41
2022-08-24T18:18:15.964Z,99591.97
2022-08-24T18:20:25.112Z,99605.13
2022-08-24T18:22:26.927Z,99610.97
2022-08-24T18:24:32.645Z,99605.31
2022-08-24T18:26:35.121Z,99609.28
2022-08-24T18:28:37.323Z,99612.03
2022-08-24T18:30:41.366Z,99607.72
2022-08-24T18:32:43.191Z,99613.72
2022-08-24T18:34:45.476Z,99605.44
2022-08-24T18:36:47.809Z,99609.22
2022-08-24T18:38:49.647Z,99613.03
2022-08-24T18:40:52.761Z,99615.09
2022-08-24T18:42:57.533Z,99616.97
2022-08-24T18:45:02.878Z,99616.44
2022-08-24T18:47:05.102Z,99612.97
2022-08-24T18:49:07.323Z,99619.38
2022-08-24T18:51:10.437Z,99623.00
2022-08-24T18:53:13.435Z,99625.41
2022-08-24T18:55:16.878Z,99624.34
2022-08-24T18:57:18.934Z,99631.75
2022-08-24T18:59:21.466Z,99629.16
2022-08-24T19:01:24.173Z,99631.53
2022-08-24T19:03:27.271Z,99629.50
2022-08-24T19:05:29.069Z,99633.09
2022-08-24T19:07:33.775Z,99637.59
2022-08-24T19:09:36.138Z,99639.69
2022-08-24T19:11:38.408Z,99642.44
2022-08-24T19:13:40.380Z,99645.47
2022-08-24T19:15:43.248Z,99640.28
2022-08-24T19:17:45.582Z,99641.34
2022-08-24T19:19:47.417Z,99644.25
2022-08-24T19:21:49.663Z,99644.75
2022-08-24T19:23:52.129Z,99648.53
2022-08-24T19:25:54.709Z,99643.50
2022-08-24T19:27:56.716Z,99654.03
2022-08-24T19:29:58.647Z,99643.16
2022-08-24T19:32:00.703Z,99653.31
2022-08-24T19:34:03.522Z,99652.09
2022-08-24T19:36:07.412Z,99654.34
2022-08-24T19:38:09.364Z,99650.50
2022-08-24T19:40:12.042Z,99654.59
2022-08-24T19:42:15.536Z,99654.59
2022-08-24T19:44:38.736Z,99649.41
2022-08-24T19:46:40.762Z,99649.75
2022-08-24T19:48:42.588Z,99656.13
2022-08-24T19:50:44.539Z,99653.16
2022-08-24T19:52:46.585Z,99658.13
2022-08-24T19:54:48.707Z,99656.72
2022-08-24T19:56:54.353Z,99651.78
2022-08-24T19:59:02.258Z,99656.84
2022-08-24T20:01:10.731Z,99652.53
2022-08-24T20:03:13.312Z,99658.34
2022-08-24T20:05:17.948Z,99654.66
2022-08-24T20:07:19.855Z,99657.50
2022-08-24T20:09:23.563Z,99658.38
2022-08-24T20:11:25.963Z,99658.59
2022-08-24T20:13:27.964Z,99659.66
2022-08-24T20:15:29.890Z,99660.31
2022-08-24T20:17:32.113Z,99670.16
2022-08-24T20:19:38.177Z,99662.41
2022-08-24T20:21:40.640Z,99673.25
2022-08-24T20:23:43.694Z,99674.03
2022-08-24T20:25:46.288Z,99675.00
2022-08-24T20:27:55.024Z,99670.50
2022-08-24T20:30:09.815Z,99674.28
2022-08-24T20:32:11.879Z,99675.78
2022-08-24T20:34:15.280Z,99677.72
2022-08-24T20:36:27.769Z,99678.81
2022-08-24T20:38:31.917Z,99673.41
2022-08-24T20:40:36.257Z,99681.03
2022-08-24T20:42:38.669Z,99675.06
2022-08-24T20:44:40.827Z,99683.00
2022-08-24T20:46:46.566Z,99678.34
2022-08-24T20:48:55.440Z,99683.75
2022-08-24T20:50:59.247Z,99681.69
2022-08-24T20:53:01.356Z,99679.09
2022-08-24T20:55:05.154Z,99691.81
2022-08-24T20:57:09.402Z,99690.97
2022-08-24T20:59:13.372Z,99693.88
2022-08-24T21:01:15.681Z,99690.41
2022-08-24T21:03:19.354Z,99688.97
2022-08-24T21:05:22.533Z,99689.69
2022-08-24T21:07:24.711Z,99695.50
2022-08-24T21:09:27.513Z,99689.28
2022-08-24T21:11:29.694Z,99691.31
2022-08-24T21:13:40.595Z,99685.81
2022-08-24T21:15:42.931Z,99691.78
2022-08-24T21:17:45.574Z,99688.50
2022-08-24T21:19:47.888Z,99695.91
2022-08-24T21:21:50.071Z,99687.94
2022-08-24T21:23:52.163Z,99689.53
2022-08-24T21:25:54.527Z,99686.91
2022-08-24T21:28:02.165Z,99683.63
2022-08-24T21:30:08.879Z,99686.38
2022-08-24T21:32:29.874Z,99691.72
2022-08-24T21:34:40.916Z,99687.38
2022-08-24T21:36:43.368Z,99683.91
2022-08-24T21:38:45.592Z,99692.16
2022-08-24T21:40:48.720Z,99686.13
2022-08-24T21:42:50.969Z,99690.69
2022-08-24T21:44:53.836Z,99682.94
2022-08-24T21:46:57.139Z,99669.94
2022-08-24T21:49:00.519Z,99672.88
2022-08-24T21:51:02.921Z,99673.88
2022-08-24T21:53:08.374Z,99668.03
2022-08-24T21:55:15.031Z,99676.72
2022-08-24T21:57:17.983Z,99677.44
2022-08-24T21:59:19.959Z,99676.56
2022-08-24T22:01:22.178Z,99672.50
2022-08-24T22:03:24.476Z,99667.84
2022-08-24T22:05:26.797Z,99673.03
2022-08-24T22:07:28.984Z,99662.16
2022-08-24T22:09:31.054Z,99659.75
2022-08-24T22:11:33.488Z,99660.69
2022-08-24T22:13:36.294Z,99655.19
2022-08-24T22:15:38.682Z,99662.53
2022-08-24T22:17:40.776Z,99650.13
2022-08-24T22:19:43.026Z,99657.34
2022-08-24T22:21:48.042Z,99654.47
2022-08-24T22:23:50.570Z,99656.19
2022-08-24T22:25:54.285Z,99647.94
2022-08-24T22:27:56.290Z,99653.81
2022-08-24T22:29:59.022Z,99649.78
2022-08-24T22:32:01.198Z,99647.78
2022-08-24T22:34:07.647Z,99648.44
2022-08-24T22:36:11.386Z,99647.91
2022-08-24T22:38:13.664Z,99644.19
2022-08-24T22:40:16.059Z,99644.81
2022-08-24T22:42:27.657Z,99649.28
2022-08-24T22:44:30.099Z,99648.56
2022-08-24T22:46:33.037Z,99639.00
2022-08-24T22:48:35.622Z,99645.19
2022-08-24T22:50:38.186Z,99634.34
2022-08-24T22:52:40.705Z,99631.13
2022-08-24T22:54:43.551Z,99637.78
2022-08-24T22:56:48.181Z,99627.63
2022-08-24T22:58:50.345Z,99629.97
2022-08-24T23:00:52.414Z,99620.41
2022-08-24T23:02:54.514Z,99616.22
2022-08-24T23:04:56.761Z,99622.03
2022-08-24T23:06:59.919Z,99621.47
2022-08-24T23:09:02.241Z,99621.59
2022-08-24T23:11:04.283Z,99619.16
2022-08-24T23:13:07.052Z,99620.88
2022-08-24T23:15:09.677Z,99615.97
2022-08-24T23:17:12.519Z,99612.91
2022-08-24T23:19:35.918Z,99604.22
2022-08-24T23:21:38.495Z,99597.03
2022-08-24T23:23:43.511Z,99598.47
2022-08-24T23:25:49.693Z,99594.44
2022-08-24T23:27:52.239Z,99584.59
2022-08-24T23:29:55.053Z,99593.13
2022-08-24T23:31:58.244Z,99597.31
2022-08-24T23:34:00.466Z,99589.66
2022-08-24T23:36:09.240Z,99585.53
2022-08-24T23:38:11.285Z,99594.16
2022-08-24T23:40:13.391Z,99592.59
2022-08-24T23:42:15.958Z,99593.28
2022-08-24T23:44:23.642Z,99598.09
2022-08-24T23:46:25.955Z,99597.38
2022-08-24T23:48:28.528Z,99592.78
2022-08-24T23:50:30.662Z,99589.59
2022-08-24T23:52:32.752Z,99587.00
2022-08-24T23:54:35.169Z,99579.19
2022-08-24T23:56:39.208Z,99572.84
2022-08-24T23:58:46.479Z,99573.41
